sensor_id;sensor_type;location;lat;lon;timestamp;P1;durP1;ratioP1;P2;durP2;ratioP2
51806;SDS011;37865;51.304;9.536;2023-05-10T01:40:07;4.88;;;3.90;;
51806;SDS011;37865;51.304;9.536;2023-05-10T01:42:40;6.80;;;4.05;;
51806;SDS011;37865;51.304;9.536;2023-05-10T01:48:40;3.47;;;2.85;;
51806;SDS011;37865;51.304;9.536;2023-05-10T01:51:12;3.30;;;3.00;;
51806;SDS011;37865;51.304;9.536;2023-05-10T01:53:40;3.65;;;3.35;;
51806;SDS011;37865;51.304;9.536;2023-05-10T01:56:08;3.25;;;2.95;;
51806;SDS011;37865;51.304;9.536;2023-05-10T01:58:36;3.47;;;3.17;;
51806;SDS011;37865;51.304;9.536;2023-05-10T02:01:04;4.35;;;2.80;;
51806;SDS011;37865;51.304;9.536;2023-05-10T02:03:32;4.10;;;3.47;;
51806;SDS011;37865;51.304;9.536;2023-05-10T02:06:00;8.55;;;2.60;;
51806;SDS011;37865;51.304;9.536;2023-05-10T02:08:27;2.75;;;2.55;;
51806;SDS011;37865;51.304;9.536;2023-05-10T02:10:54;3.13;;;2.78;;
51806;SDS011;37865;51.304;9.536;2023-05-10T02:13:21;3.28;;;2.53;;
51806;SDS011;37865;51.304;9.536;2023-05-10T02:15:48;2.30;;;2.10;;
51806;SDS011;37865;51.304;9.536;2023-05-10T02:18:15;2.63;;;2.42;;
51806;SDS011;37865;51.304;9.536;2023-05-10T02:20:43;4.80;;;3.20;;
51806;SDS011;37865;51.304;9.536;2023-05-10T02:23:10;2.45;;;2.25;;
51806;SDS011;37865;51.304;9.536;2023-05-10T02:25:36;2.85;;;2.25;;
51806;SDS011;37865;51.304;9.536;2023-05-10T02:28:04;2.92;;;2.63;;
51806;SDS011;37865;51.304;9.536;2023-05-10T02:30:31;3.28;;;1.83;;
51806;SDS011;37865;51.304;9.536;2023-05-10T02:32:58;5.18;;;2.30;;
51806;SDS011;37865;51.304;9.536;2023-05-10T02:35:25;3.38;;;2.65;;
51806;SDS011;37865;51.304;9.536;2023-05-10T02:37:51;3.22;;;2.53;;
51806;SDS011;37865;51.304;9.536;2023-05-10T02:40:18;9.82;;;2.85;;
51806;SDS011;37865;51.304;9.536;2023-05-10T02:42:44;2.65;;;2.33;;
51806;SDS011;37865;51.304;9.536;2023-05-10T02:45:14;3.83;;;3.20;;
51806;SDS011;37865;51.304;9.536;2023-05-10T02:47:42;3.30;;;2.60;;
51806;SDS011;37865;51.304;9.536;2023-05-10T02:50:08;5.18;;;3.28;;
51806;SDS011;37865;51.304;9.536;2023-05-10T02:52:56;5.85;;;3.17;;
51806;SDS011;37865;51.304;9.536;2023-05-10T02:55:25;3.25;;;2.70;;
51806;SDS011;37865;51.304;9.536;2023-05-10T02:57:58;4.72;;;2.80;;
51806;SDS011;37865;51.304;9.536;2023-05-10T03:00:25;3.75;;;2.60;;
51806;SDS011;37865;51.304;9.536;2023-05-10T03:02:50;4.82;;;2.50;;
51806;SDS011;37865;51.304;9.536;2023-05-10T03:05:15;4.75;;;2.40;;
51806;SDS011;37865;51.304;9.536;2023-05-10T03:07:41;2.42;;;2.22;;
51806;SDS011;37865;51.304;9.536;2023-05-10T03:10:06;5.90;;;3.42;;
51806;SDS011;37865;51.304;9.536;2023-05-10T03:18:16;4.18;;;3.13;;
51806;SDS011;37865;51.304;9.536;2023-05-10T03:20:47;3.78;;;2.88;;
51806;SDS011;37865;51.304;9.536;2023-05-10T03:25:46;2.05;;;1.85;;
51806;SDS011;37865;51.304;9.536;2023-05-10T03:28:13;2.03;;;1.75;;
51806;SDS011;37865;51.304;9.536;2023-05-10T03:30:40;3.78;;;1.73;;
51806;SDS011;37865;51.304;9.536;2023-05-10T03:33:07;1.52;;;1.10;;
51806;SDS011;37865;51.304;9.536;2023-05-10T03:35:33;1.63;;;1.10;;
51806;SDS011;37865;51.304;9.536;2023-05-10T03:37:58;2.65;;;1.10;;
51806;SDS011;37865;51.304;9.536;2023-05-10T03:40:24;0.70;;;0.70;;
51806;SDS011;37865;51.304;9.536;2023-05-10T03:42:50;2.33;;;1.27;;
51806;SDS011;37865;51.304;9.536;2023-05-10T03:45:16;1.95;;;0.80;;
51806;SDS011;37865;51.304;9.536;2023-05-10T03:47:41;0.95;;;0.95;;
51806;SDS011;37865;51.304;9.536;2023-05-10T03:50:07;0.82;;;0.63;;
51806;SDS011;37865;51.304;9.536;2023-05-10T03:52:32;2.25;;;1.10;;
51806;SDS011;37865;51.304;9.536;2023-05-10T03:54:58;2.05;;;1.85;;
51806;SDS011;37865;51.304;9.536;2023-05-10T03:57:23;3.65;;;1.77;;
51806;SDS011;37865;51.304;9.536;2023-05-10T03:59:48;4.78;;;1.30;;
51806;SDS011;37865;51.304;9.536;2023-05-10T04:02:14;1.73;;;1.63;;
51806;SDS011;37865;51.304;9.536;2023-05-10T04:04:39;1.98;;;1.65;;
51806;SDS011;37865;51.304;9.536;2023-05-10T04:07:04;3.80;;;1.23;;
51806;SDS011;37865;51.304;9.536;2023-05-10T04:09:30;2.03;;;1.73;;
51806;SDS011;37865;51.304;9.536;2023-05-10T04:11:55;1.92;;;1.83;;
51806;SDS011;37865;51.304;9.536;2023-05-10T04:14:20;3.42;;;1.60;;
51806;SDS011;37865;51.304;9.536;2023-05-10T04:16:46;3.08;;;1.40;;
51806;SDS011;37865;51.304;9.536;2023-05-10T04:19:11;3.10;;;2.13;;
51806;SDS011;37865;51.304;9.536;2023-05-10T04:21:36;1.65;;;1.50;;
51806;SDS011;37865;51.304;9.536;2023-05-10T04:24:02;1.85;;;1.42;;
51806;SDS011;37865;51.304;9.536;2023-05-10T04:26:27;5.88;;;1.67;;
51806;SDS011;37865;51.304;9.536;2023-05-10T04:28:52;0.70;;;0.70;;
51806;SDS011;37865;51.304;9.536;2023-05-10T04:31:18;4.00;;;1.63;;
51806;SDS011;37865;51.304;9.536;2023-05-10T04:33:43;3.28;;;1.40;;
51806;SDS011;37865;51.304;9.536;2023-05-10T04:36:08;2.60;;;1.80;;
51806;SDS011;37865;51.304;9.536;2023-05-10T04:38:34;3.60;;;1.65;;
51806;SDS011;37865;51.304;9.536;2023-05-10T04:41:06;1.85;;;1.65;;
51806;SDS011;37865;51.304;9.536;2023-05-10T04:43:32;5.57;;;1.52;;
51806;SDS011;37865;51.304;9.536;2023-05-10T04:45:57;1.90;;;1.40;;
51806;SDS011;37865;51.304;9.536;2023-05-10T04:48:22;2.60;;;1.85;;
51806;SDS011;37865;51.304;9.536;2023-05-10T04:50:48;1.85;;;1.70;;
51806;SDS011;37865;51.304;9.536;2023-05-10T04:53:13;2.05;;;1.83;;
51806;SDS011;37865;51.304;9.536;2023-05-10T04:55:38;2.03;;;1.23;;
51806;SDS011;37865;51.304;9.536;2023-05-10T04:58:04;5.80;;;2.05;;
51806;SDS011;37865;51.304;9.536;2023-05-10T05:00:29;2.83;;;1.55;;
51806;SDS011;37865;51.304;9.536;2023-05-10T05:02:54;1.40;;;1.30;;
51806;SDS011;37865;51.304;9.536;2023-05-10T05:05:20;2.60;;;1.80;;
51806;SDS011;37865;51.304;9.536;2023-05-10T05:07:45;2.92;;;2.08;;
51806;SDS011;37865;51.304;9.536;2023-05-10T05:10:10;5.75;;;2.10;;
51806;SDS011;37865;51.304;9.536;2023-05-10T05:12:36;4.72;;;2.47;;
51806;SDS011;37865;51.304;9.536;2023-05-10T05:15:01;4.32;;;2.33;;
51806;SDS011;37865;51.304;9.536;2023-05-10T05:17:27;3.17;;;2.13;;
51806;SDS011;37865;51.304;9.536;2023-05-10T05:19:55;4.78;;;2.13;;
51806;SDS011;37865;51.304;9.536;2023-05-10T05:22:20;12.35;;;3.10;;
51806;SDS011;37865;51.304;9.536;2023-05-10T05:24:52;22.27;;;2.00;;
51806;SDS011;37865;51.304;9.536;2023-05-10T05:27:17;2.03;;;1.30;;
51806;SDS011;37865;51.304;9.536;2023-05-10T05:29:43;3.50;;;0.90;;
51806;SDS011;37865;51.304;9.536;2023-05-10T05:32:08;1.58;;;1.13;;
51806;SDS011;37865;51.304;9.536;2023-05-10T05:34:33;5.03;;;1.10;;
51806;SDS011;37865;51.304;9.536;2023-05-10T05:36:59;5.70;;;2.40;;
51806;SDS011;37865;51.304;9.536;2023-05-10T05:39:24;0.40;;;0.40;;
51806;SDS011;37865;51.304;9.536;2023-05-10T05:41:49;1.88;;;0.98;;
51806;SDS011;37865;51.304;9.536;2023-05-10T05:44:15;0.93;;;0.50;;
51806;SDS011;37865;51.304;9.536;2023-05-10T05:46:40;1.00;;;0.90;;
51806;SDS011;37865;51.304;9.536;2023-05-10T05:49:05;1.27;;;1.13;;
51806;SDS011;37865;51.304;9.536;2023-05-10T05:51:31;7.63;;;1.95;;
51806;SDS011;37865;51.304;9.536;2023-05-10T05:53:56;1.77;;;1.30;;
51806;SDS011;37865;51.304;9.536;2023-05-10T05:56:21;3.35;;;0.98;;
51806;SDS011;37865;51.304;9.536;2023-05-10T05:58:50;9.05;;;0.98;;
51806;SDS011;37865;51.304;9.536;2023-05-10T06:01:15;2.58;;;0.75;;
51806;SDS011;37865;51.304;9.536;2023-05-10T06:03:41;2.65;;;0.50;;
51806;SDS011;37865;51.304;9.536;2023-05-10T06:06:06;2.38;;;0.63;;
51806;SDS011;37865;51.304;9.536;2023-05-10T06:08:32;0.85;;;0.50;;
51806;SDS011;37865;51.304;9.536;2023-05-10T06:10:58;0.63;;;0.60;;
51806;SDS011;37865;51.304;9.536;2023-05-10T06:13:24;0.52;;;0.52;;
51806;SDS011;37865;51.304;9.536;2023-05-10T06:15:49;0.82;;;0.80;;
51806;SDS011;37865;51.304;9.536;2023-05-10T06:18:15;1.02;;;0.80;;
51806;SDS011;37865;51.304;9.536;2023-05-10T06:20:41;2.63;;;0.90;;
51806;SDS011;37865;51.304;9.536;2023-05-10T06:23:06;1.00;;;0.90;;
51806;SDS011;37865;51.304;9.536;2023-05-10T06:25:32;1.92;;;1.02;;
51806;SDS011;37865;51.304;9.536;2023-05-10T06:27:57;0.77;;;0.60;;
51806;SDS011;37865;51.304;9.536;2023-05-10T06:30:23;1.30;;;1.00;;
51806;SDS011;37865;51.304;9.536;2023-05-10T06:32:52;0.90;;;0.90;;
51806;SDS011;37865;51.304;9.536;2023-05-10T06:35:18;1.25;;;0.90;;
51806;SDS011;37865;51.304;9.536;2023-05-10T06:37:43;3.40;;;1.33;;
51806;SDS011;37865;51.304;9.536;2023-05-10T06:40:09;3.78;;;1.08;;
51806;SDS011;37865;51.304;9.536;2023-05-10T06:42:34;1.05;;;0.90;;
51806;SDS011;37865;51.304;9.536;2023-05-10T06:45:00;3.15;;;1.08;;
51806;SDS011;37865;51.304;9.536;2023-05-10T06:47:25;10.02;;;1.13;;
51806;SDS011;37865;51.304;9.536;2023-05-10T06:49:50;0.90;;;0.90;;
51806;SDS011;37865;51.304;9.536;2023-05-10T06:52:16;1.50;;;1.40;;
51806;SDS011;37865;51.304;9.536;2023-05-10T06:54:41;2.53;;;1.63;;
51806;SDS011;37865;51.304;9.536;2023-05-10T06:57:06;1.65;;;1.55;;
51806;SDS011;37865;51.304;9.536;2023-05-10T06:59:32;1.50;;;1.40;;
51806;SDS011;37865;51.304;9.536;2023-05-10T07:01:57;1.15;;;1.15;;
51806;SDS011;37865;51.304;9.536;2023-05-10T07:04:22;5.13;;;1.40;;
51806;SDS011;37865;51.304;9.536;2023-05-10T07:06:48;2.08;;;1.23;;
51806;SDS011;37865;51.304;9.536;2023-05-10T07:09:14;1.73;;;1.30;;
51806;SDS011;37865;51.304;9.536;2023-05-10T07:11:40;1.55;;;1.45;;
51806;SDS011;37865;51.304;9.536;2023-05-10T07:14:06;3.63;;;1.67;;
51806;SDS011;37865;51.304;9.536;2023-05-10T07:16:31;0.25;;;0.25;;
51806;SDS011;37865;51.304;9.536;2023-05-10T07:18:56;0.73;;;0.50;;
51806;SDS011;37865;51.304;9.536;2023-05-10T07:21:22;2.40;;;1.02;;
51806;SDS011;37865;51.304;9.536;2023-05-10T07:23:49;1.23;;;0.40;;
51806;SDS011;37865;51.304;9.536;2023-05-10T07:26:15;1.40;;;0.40;;
51806;SDS011;37865;51.304;9.536;2023-05-10T07:28:40;0.65;;;0.47;;
51806;SDS011;37865;51.304;9.536;2023-05-10T07:31:06;0.40;;;0.40;;
51806;SDS011;37865;51.304;9.536;2023-05-10T07:33:31;1.27;;;0.43;;
51806;SDS011;37865;51.304;9.536;2023-05-10T07:35:57;1.90;;;0.85;;
51806;SDS011;37865;51.304;9.536;2023-05-10T07:38:22;1.95;;;0.65;;
51806;SDS011;37865;51.304;9.536;2023-05-10T07:40:48;0.50;;;0.50;;
51806;SDS011;37865;51.304;9.536;2023-05-10T07:43:13;1.17;;;0.47;;
51806;SDS011;37865;51.304;9.536;2023-05-10T07:45:38;0.45;;;0.40;;
51806;SDS011;37865;51.304;9.536;2023-05-10T07:48:04;4.97;;;0.60;;
51806;SDS011;37865;51.304;9.536;2023-05-10T07:50:29;0.85;;;0.70;;
51806;SDS011;37865;51.304;9.536;2023-05-10T07:52:55;1.48;;;0.80;;
51806;SDS011;37865;51.304;9.536;2023-05-10T07:55:20;1.90;;;0.70;;
51806;SDS011;37865;51.304;9.536;2023-05-10T07:57:48;0.32;;;0.30;;
51806;SDS011;37865;51.304;9.536;2023-05-10T08:00:16;6.43;;;0.75;;
51806;SDS011;37865;51.304;9.536;2023-05-10T08:02:42;1.30;;;0.98;;
51806;SDS011;37865;51.304;9.536;2023-05-10T08:05:08;2.03;;;0.40;;
51806;SDS011;37865;51.304;9.536;2023-05-10T08:07:33;2.53;;;0.68;;
51806;SDS011;37865;51.304;9.536;2023-05-10T08:09:59;2.90;;;0.65;;
51806;SDS011;37865;51.304;9.536;2023-05-10T08:12:24;0.93;;;0.60;;
51806;SDS011;37865;51.304;9.536;2023-05-10T08:14:50;0.47;;;0.43;;
51806;SDS011;37865;51.304;9.536;2023-05-10T08:17:15;0.32;;;0.32;;
51806;SDS011;37865;51.304;9.536;2023-05-10T08:19:41;0.93;;;0.85;;
51806;SDS011;37865;51.304;9.536;2023-05-10T08:22:06;0.47;;;0.47;;
51806;SDS011;37865;51.304;9.536;2023-05-10T08:24:31;0.75;;;0.50;;
51806;SDS011;37865;51.304;9.536;2023-05-10T08:26:57;1.45;;;0.50;;
51806;SDS011;37865;51.304;9.536;2023-05-10T08:29:22;2.30;;;0.70;;
51806;SDS011;37865;51.304;9.536;2023-05-10T08:31:48;3.72;;;0.40;;
51806;SDS011;37865;51.304;9.536;2023-05-10T08:34:13;0.68;;;0.40;;
51806;SDS011;37865;51.304;9.536;2023-05-10T08:36:38;3.67;;;0.65;;
51806;SDS011;37865;51.304;9.536;2023-05-10T08:39:04;3.63;;;0.65;;
51806;SDS011;37865;51.304;9.536;2023-05-10T08:41:29;0.63;;;0.50;;
51806;SDS011;37865;51.304;9.536;2023-05-10T08:43:58;1.65;;;0.70;;
51806;SDS011;37865;51.304;9.536;2023-05-10T08:46:25;0.47;;;0.47;;
51806;SDS011;37865;51.304;9.536;2023-05-10T08:48:52;1.65;;;0.90;;
51806;SDS011;37865;51.304;9.536;2023-05-10T08:51:24;0.85;;;0.52;;
51806;SDS011;37865;51.304;9.536;2023-05-10T08:53:53;0.50;;;0.50;;
51806;SDS011;37865;51.304;9.536;2023-05-10T08:56:18;1.33;;;1.15;;
51806;SDS011;37865;51.304;9.536;2023-05-10T08:58:45;3.40;;;1.23;;
51806;SDS011;37865;51.304;9.536;2023-05-10T09:01:10;1.00;;;0.90;;
51806;SDS011;37865;51.304;9.536;2023-05-10T09:03:38;1.13;;;1.02;;
51806;SDS011;37865;51.304;9.536;2023-05-10T09:06:04;1.83;;;1.02;;
51806;SDS011;37865;51.304;9.536;2023-05-10T09:08:30;3.40;;;1.35;;
51806;SDS011;37865;51.304;9.536;2023-05-10T09:10:56;4.18;;;1.25;;
51806;SDS011;37865;51.304;9.536;2023-05-10T09:13:22;2.20;;;1.13;;
51806;SDS011;37865;51.304;9.536;2023-05-10T09:15:48;1.55;;;1.10;;
51806;SDS011;37865;51.304;9.536;2023-05-10T09:18:14;2.30;;;1.75;;
51806;SDS011;37865;51.304;9.536;2023-05-10T09:20:40;3.35;;;1.52;;
51806;SDS011;37865;51.304;9.536;2023-05-10T09:23:06;1.27;;;0.93;;
51806;SDS011;37865;51.304;9.536;2023-05-10T09:25:31;3.60;;;1.40;;
51806;SDS011;37865;51.304;9.536;2023-05-10T09:27:58;1.60;;;1.23;;
51806;SDS011;37865;51.304;9.536;2023-05-10T09:30:28;2.15;;;1.20;;
51806;SDS011;37865;51.304;9.536;2023-05-10T09:32:54;1.48;;;1.38;;
51806;SDS011;37865;51.304;9.536;2023-05-10T09:35:21;6.57;;;2.05;;
51806;SDS011;37865;51.304;9.536;2023-05-10T09:37:52;2.78;;;1.42;;
51806;SDS011;37865;51.304;9.536;2023-05-10T09:40:20;3.15;;;1.40;;
51806;SDS011;37865;51.304;9.536;2023-05-10T09:45:27;4.97;;;1.88;;
51806;SDS011;37865;51.304;9.536;2023-05-10T09:47:57;1.55;;;1.23;;
51806;SDS011;37865;51.304;9.536;2023-05-10T09:50:23;1.30;;;1.20;;
51806;SDS011;37865;51.304;9.536;2023-05-10T09:52:56;3.00;;;1.48;;
51806;SDS011;37865;51.304;9.536;2023-05-10T09:55:26;3.75;;;1.80;;
51806;SDS011;37865;51.304;9.536;2023-05-10T09:58:03;4.38;;;2.47;;
51806;SDS011;37865;51.304;9.536;2023-05-10T10:00:41;2.00;;;1.40;;
51806;SDS011;37865;51.304;9.536;2023-05-10T10:03:12;4.88;;;2.38;;
51806;SDS011;37865;51.304;9.536;2023-05-10T10:05:56;9.82;;;2.50;;
51806;SDS011;37865;51.304;9.536;2023-05-10T10:08:21;2.75;;;1.75;;
51806;SDS011;37865;51.304;9.536;2023-05-10T10:10:47;2.78;;;2.13;;
51806;SDS011;37865;51.304;9.536;2023-05-10T10:13:13;1.63;;;1.52;;
51806;SDS011;37865;51.304;9.536;2023-05-10T10:15:39;4.55;;;1.70;;
51806;SDS011;37865;51.304;9.536;2023-05-10T10:18:04;1.90;;;1.80;;
51806;SDS011;37865;51.304;9.536;2023-05-10T10:20:30;2.42;;;1.58;;
51806;SDS011;37865;51.304;9.536;2023-05-10T10:22:55;2.25;;;1.98;;
51806;SDS011;37865;51.304;9.536;2023-05-10T10:25:21;2.38;;;2.15;;
51806;SDS011;37865;51.304;9.536;2023-05-10T10:33:01;2.70;;;1.90;;
51806;SDS011;37865;51.304;9.536;2023-05-10T10:35:38;4.63;;;2.13;;
51806;SDS011;37865;51.304;9.536;2023-05-10T10:38:05;2.33;;;2.10;;
51806;SDS011;37865;51.304;9.536;2023-05-10T10:40:33;3.08;;;2.28;;
51806;SDS011;37865;51.304;9.536;2023-05-10T10:48:47;2.88;;;2.30;;
51806;SDS011;37865;51.304;9.536;2023-05-10T10:51:13;3.35;;;2.65;;
51806;SDS011;37865;51.304;9.536;2023-05-10T10:53:39;2.95;;;2.60;;
51806;SDS011;37865;51.304;9.536;2023-05-10T10:56:15;3.65;;;2.95;;
51806;SDS011;37865;51.304;9.536;2023-05-10T10:58:40;3.92;;;2.25;;
51806;SDS011;37865;51.304;9.536;2023-05-10T11:01:16;3.80;;;2.15;;
51806;SDS011;37865;51.304;9.536;2023-05-10T11:06:29;4.77;;;3.13;;
51806;SDS011;37865;51.304;9.536;2023-05-10T11:08:56;2.72;;;2.50;;
51806;SDS011;37865;51.304;9.536;2023-05-10T11:11:22;2.95;;;2.30;;
51806;SDS011;37865;51.304;9.536;2023-05-10T11:13:48;7.85;;;2.53;;
51806;SDS011;37865;51.304;9.536;2023-05-10T11:18:52;3.38;;;2.42;;
51806;SDS011;37865;51.304;9.536;2023-05-10T11:21:26;4.53;;;3.28;;
51806;SDS011;37865;51.304;9.536;2023-05-10T11:23:53;5.25;;;3.05;;
51806;SDS011;37865;51.304;9.536;2023-05-10T11:26:23;2.88;;;2.67;;
51806;SDS011;37865;51.304;9.536;2023-05-10T11:28:50;6.00;;;3.63;;
51806;SDS011;37865;51.304;9.536;2023-05-10T11:31:17;5.22;;;3.03;;
51806;SDS011;37865;51.304;9.536;2023-05-10T11:36:23;9.93;;;3.67;;
51806;SDS011;37865;51.304;9.536;2023-05-10T11:38:51;7.78;;;6.68;;
51806;SDS011;37865;51.304;9.536;2023-05-10T11:41:17;3.80;;;3.42;;
51806;SDS011;37865;51.304;9.536;2023-05-10T11:43:45;8.23;;;3.45;;
51806;SDS011;37865;51.304;9.536;2023-05-10T11:46:12;5.22;;;3.97;;
51806;SDS011;37865;51.304;9.536;2023-05-10T11:48:38;2.70;;;2.50;;
51806;SDS011;37865;51.304;9.536;2023-05-10T11:51:05;6.03;;;3.53;;
51806;SDS011;37865;51.304;9.536;2023-05-10T11:53:32;6.45;;;2.83;;
51806;SDS011;37865;51.304;9.536;2023-05-10T11:58:33;3.72;;;3.30;;
51806;SDS011;37865;51.304;9.536;2023-05-10T12:00:59;3.42;;;2.65;;
51806;SDS011;37865;51.304;9.536;2023-05-10T12:03:25;2.88;;;2.65;;
51806;SDS011;37865;51.304;9.536;2023-05-10T12:05:51;3.55;;;2.83;;
51806;SDS011;37865;51.304;9.536;2023-05-10T12:08:20;2.47;;;2.28;;
51806;SDS011;37865;51.304;9.536;2023-05-10T12:10:47;4.00;;;3.60;;
51806;SDS011;37865;51.304;9.536;2023-05-10T12:13:13;4.10;;;3.00;;
51806;SDS011;37865;51.304;9.536;2023-05-10T12:15:39;4.60;;;3.25;;
51806;SDS011;37865;51.304;9.536;2023-05-10T12:18:05;4.25;;;2.65;;
51806;SDS011;37865;51.304;9.536;2023-05-10T12:20:30;10.15;;;2.65;;
51806;SDS011;37865;51.304;9.536;2023-05-10T12:22:57;4.68;;;3.35;;
51806;SDS011;37865;51.304;9.536;2023-05-10T12:25:24;3.78;;;3.47;;
51806;SDS011;37865;51.304;9.536;2023-05-10T12:27:55;5.47;;;3.80;;
51806;SDS011;37865;51.304;9.536;2023-05-10T12:30:25;4.63;;;2.40;;
51806;SDS011;37865;51.304;9.536;2023-05-10T12:35:47;3.20;;;2.70;;
51806;SDS011;37865;51.304;9.536;2023-05-10T12:38:31;3.20;;;2.88;;
51806;SDS011;37865;51.304;9.536;2023-05-10T12:41:03;5.63;;;2.72;;
51806;SDS011;37865;51.304;9.536;2023-05-10T12:43:31;2.38;;;2.17;;
51806;SDS011;37865;51.304;9.536;2023-05-10T12:45:57;4.30;;;2.58;;
51806;SDS011;37865;51.304;9.536;2023-05-10T12:48:22;5.38;;;3.38;;
51806;SDS011;37865;51.304;9.536;2023-05-10T12:50:47;4.70;;;3.33;;
51806;SDS011;37865;51.304;9.536;2023-05-10T12:53:14;15.15;;;7.15;;
51806;SDS011;37865;51.304;9.536;2023-05-10T12:55:40;7.65;;;3.97;;
51806;SDS011;37865;51.304;9.536;2023-05-10T12:58:09;5.50;;;3.60;;
51806;SDS011;37865;51.304;9.536;2023-05-10T13:00:35;9.68;;;3.97;;
51806;SDS011;37865;51.304;9.536;2023-05-10T13:03:00;10.43;;;4.00;;
51806;SDS011;37865;51.304;9.536;2023-05-10T13:05:25;7.68;;;4.50;;
51806;SDS011;37865;51.304;9.536;2023-05-10T13:07:51;10.30;;;4.57;;
51806;SDS011;37865;51.304;9.536;2023-05-10T13:10:16;10.02;;;3.88;;
51806;SDS011;37865;51.304;9.536;2023-05-10T13:12:42;8.63;;;4.40;;
51806;SDS011;37865;51.304;9.536;2023-05-10T13:15:07;6.90;;;3.72;;
51806;SDS011;37865;51.304;9.536;2023-05-10T13:17:32;5.45;;;2.90;;
51806;SDS011;37865;51.304;9.536;2023-05-10T13:19:58;6.60;;;3.72;;
51806;SDS011;37865;51.304;9.536;2023-05-10T13:22:23;8.52;;;3.78;;
51806;SDS011;37865;51.304;9.536;2023-05-10T13:24:49;4.22;;;3.10;;
51806;SDS011;37865;51.304;9.536;2023-05-10T13:27:14;4.93;;;3.05;;
51806;SDS011;37865;51.304;9.536;2023-05-10T13:29:40;7.45;;;3.50;;
51806;SDS011;37865;51.304;9.536;2023-05-10T13:32:05;6.32;;;3.65;;
51806;SDS011;37865;51.304;9.536;2023-05-10T13:34:31;8.73;;;2.72;;
51806;SDS011;37865;51.304;9.536;2023-05-10T13:36:56;5.47;;;3.50;;
51806;SDS011;37865;51.304;9.536;2023-05-10T13:39:22;14.32;;;3.75;;
51806;SDS011;37865;51.304;9.536;2023-05-10T13:41:47;8.85;;;3.55;;
51806;SDS011;37865;51.304;9.536;2023-05-10T13:44:13;4.45;;;3.45;;
51806;SDS011;37865;51.304;9.536;2023-05-10T13:46:39;4.32;;;3.33;;
51806;SDS011;37865;51.304;9.536;2023-05-10T13:49:05;6.82;;;4.82;;
51806;SDS011;37865;51.304;9.536;2023-05-10T13:51:31;9.45;;;4.88;;
51806;SDS011;37865;51.304;9.536;2023-05-10T13:53:59;5.18;;;3.80;;
51806;SDS011;37865;51.304;9.536;2023-05-10T13:56:24;8.35;;;3.92;;
51806;SDS011;37865;51.304;9.536;2023-05-10T13:58:50;6.22;;;3.65;;
51806;SDS011;37865;51.304;9.536;2023-05-10T14:01:16;3.60;;;2.97;;
51806;SDS011;37865;51.304;9.536;2023-05-10T14:03:41;4.55;;;3.15;;
51806;SDS011;37865;51.304;9.536;2023-05-10T14:06:07;4.60;;;3.25;;
51806;SDS011;37865;51.304;9.536;2023-05-10T14:08:32;7.45;;;3.20;;
51806;SDS011;37865;51.304;9.536;2023-05-10T14:10:59;7.18;;;4.15;;
51806;SDS011;37865;51.304;9.536;2023-05-10T14:13:24;5.38;;;3.83;;
51806;SDS011;37865;51.304;9.536;2023-05-10T14:15:50;6.60;;;3.53;;
51806;SDS011;37865;51.304;9.536;2023-05-10T14:18:15;8.32;;;3.80;;
51806;SDS011;37865;51.304;9.536;2023-05-10T14:20:41;6.10;;;3.17;;
51806;SDS011;37865;51.304;9.536;2023-05-10T14:23:06;5.50;;;3.83;;
51806;SDS011;37865;51.304;9.536;2023-05-10T14:25:32;9.65;;;4.38;;
51806;SDS011;37865;51.304;9.536;2023-05-10T14:27:58;6.38;;;3.92;;
51806;SDS011;37865;51.304;9.536;2023-05-10T14:30:23;12.70;;;5.75;;
51806;SDS011;37865;51.304;9.536;2023-05-10T14:32:48;8.90;;;5.68;;
51806;SDS011;37865;51.304;9.536;2023-05-10T14:35:14;6.80;;;4.75;;
51806;SDS011;37865;51.304;9.536;2023-05-10T14:37:39;9.73;;;3.88;;
51806;SDS011;37865;51.304;9.536;2023-05-10T14:40:05;6.18;;;4.03;;
51806;SDS011;37865;51.304;9.536;2023-05-10T14:42:31;7.43;;;4.30;;
51806;SDS011;37865;51.304;9.536;2023-05-10T14:44:56;13.45;;;4.80;;
51806;SDS011;37865;51.304;9.536;2023-05-10T14:47:22;6.45;;;3.70;;
51806;SDS011;37865;51.304;9.536;2023-05-10T14:49:47;8.88;;;3.58;;
51806;SDS011;37865;51.304;9.536;2023-05-10T14:52:12;5.82;;;3.63;;
51806;SDS011;37865;51.304;9.536;2023-05-10T14:54:39;4.47;;;3.53;;
51806;SDS011;37865;51.304;9.536;2023-05-10T14:57:05;3.88;;;3.15;;
51806;SDS011;37865;51.304;9.536;2023-05-10T14:59:31;4.78;;;3.55;;
51806;SDS011;37865;51.304;9.536;2023-05-10T15:01:56;5.57;;;3.20;;
51806;SDS011;37865;51.304;9.536;2023-05-10T15:04:22;3.67;;;3.38;;
51806;SDS011;37865;51.304;9.536;2023-05-10T15:06:47;4.47;;;3.67;;
51806;SDS011;37865;51.304;9.536;2023-05-10T15:09:12;3.83;;;3.47;;
51806;SDS011;37865;51.304;9.536;2023-05-10T15:11:38;7.85;;;4.72;;
51806;SDS011;37865;51.304;9.536;2023-05-10T15:14:03;5.40;;;3.58;;
51806;SDS011;37865;51.304;9.536;2023-05-10T15:16:28;9.68;;;3.80;;
51806;SDS011;37865;51.304;9.536;2023-05-10T15:18:54;7.40;;;3.30;;
51806;SDS011;37865;51.304;9.536;2023-05-10T15:21:19;9.10;;;4.05;;
51806;SDS011;37865;51.304;9.536;2023-05-10T15:23:44;6.43;;;4.43;;
51806;SDS011;37865;51.304;9.536;2023-05-10T15:26:10;8.93;;;5.53;;
51806;SDS011;37865;51.304;9.536;2023-05-10T15:28:35;10.15;;;6.05;;
51806;SDS011;37865;51.304;9.536;2023-05-10T15:31:00;7.30;;;5.88;;
51806;SDS011;37865;51.304;9.536;2023-05-10T15:33:25;13.63;;;8.25;;
51806;SDS011;37865;51.304;9.536;2023-05-10T15:35:52;12.25;;;8.15;;
51806;SDS011;37865;51.304;9.536;2023-05-10T15:38:18;9.10;;;7.22;;
51806;SDS011;37865;51.304;9.536;2023-05-10T15:40:44;15.40;;;7.88;;
51806;SDS011;37865;51.304;9.536;2023-05-10T15:43:09;10.13;;;7.28;;
51806;SDS011;37865;51.304;9.536;2023-05-10T15:45:34;11.80;;;7.25;;
51806;SDS011;37865;51.304;9.536;2023-05-10T15:48:00;10.30;;;6.68;;
51806;SDS011;37865;51.304;9.536;2023-05-10T15:50:26;14.65;;;7.60;;
51806;SDS011;37865;51.304;9.536;2023-05-10T15:52:51;12.85;;;7.60;;
51806;SDS011;37865;51.304;9.536;2023-05-10T15:55:17;15.63;;;7.18;;
51806;SDS011;37865;51.304;9.536;2023-05-10T15:57:43;9.40;;;6.32;;
51806;SDS011;37865;51.304;9.536;2023-05-10T16:00:09;11.30;;;7.70;;
51806;SDS011;37865;51.304;9.536;2023-05-10T16:02:35;12.48;;;8.90;;
51806;SDS011;37865;51.304;9.536;2023-05-10T16:05:01;9.90;;;7.85;;
51806;SDS011;37865;51.304;9.536;2023-05-10T16:07:27;10.63;;;6.97;;
51806;SDS011;37865;51.304;9.536;2023-05-10T16:09:52;9.30;;;7.00;;
51806;SDS011;37865;51.304;9.536;2023-05-10T16:12:17;14.82;;;7.32;;
51806;SDS011;37865;51.304;9.536;2023-05-10T16:14:43;12.60;;;7.57;;
51806;SDS011;37865;51.304;9.536;2023-05-10T16:17:08;10.93;;;7.43;;
51806;SDS011;37865;51.304;9.536;2023-05-10T16:19:33;9.45;;;7.40;;
51806;SDS011;37865;51.304;9.536;2023-05-10T16:21:59;9.68;;;6.50;;
51806;SDS011;37865;51.304;9.536;2023-05-10T16:24:24;13.85;;;8.88;;
51806;SDS011;37865;51.304;9.536;2023-05-10T16:26:50;14.25;;;8.93;;
51806;SDS011;37865;51.304;9.536;2023-05-10T16:29:15;12.70;;;7.88;;
51806;SDS011;37865;51.304;9.536;2023-05-10T16:31:41;12.38;;;8.35;;
51806;SDS011;37865;51.304;9.536;2023-05-10T16:34:06;16.05;;;8.88;;
51806;SDS011;37865;51.304;9.536;2023-05-10T16:36:31;11.43;;;8.57;;
51806;SDS011;37865;51.304;9.536;2023-05-10T16:38:57;13.57;;;8.00;;
51806;SDS011;37865;51.304;9.536;2023-05-10T16:41:22;14.90;;;8.95;;
51806;SDS011;37865;51.304;9.536;2023-05-10T16:43:48;9.55;;;7.03;;
51806;SDS011;37865;51.304;9.536;2023-05-10T16:46:14;10.40;;;7.70;;
51806;SDS011;37865;51.304;9.536;2023-05-10T16:48:40;10.63;;;7.32;;
51806;SDS011;37865;51.304;9.536;2023-05-10T16:51:05;10.70;;;7.13;;
51806;SDS011;37865;51.304;9.536;2023-05-10T16:53:31;9.05;;;6.95;;
51806;SDS011;37865;51.304;9.536;2023-05-10T16:55:56;13.70;;;6.50;;
51806;SDS011;37865;51.304;9.536;2023-05-10T16:58:21;11.75;;;6.15;;